Weather History for Roseau, MN

Change the Weather History Date:

Tuesday, October 2, 2012

  Actual Average Record
Temperature  
Mean Temperature 57 °F -  
Max Temperature 75 °F 60 °F 80 °F (2005)
Min Temperature 39 °F 34 °F 16 °F (1993)
Degree Days  
Heating Degree Days 8    
Growing Degree Days 7 (Base 50)    
Moisture  
Dew Point 29 °F    
Average Humidity 37    
Maximum Humidity 65    
Minimum Humidity 13    
Precipitation  
Precipitation 0.00 in - - ()
Sea Level Pressure  
Sea Level Pressure 29.74 in    
Wind  
Wind Speed 14 mph (SSW)    
Max Wind Speed 36 mph    
Max Gust Speed 47 mph    
Visibility 10 miles    
Events      
Averages and records for this station are not official NWS values.
T = Trace of Precipitation, MM = Missing Value Source: NWS Daily Summary

Daily Weather History Graph

Daily Weather History Graph

Search for Another Location

Airport:

Trip Planner

Search our weather history database for the weather conditions in past years. The results will help you decide how hot, cold, wet, or windy it might be!

Date:

Astronomy

Oct. 02, 2012 Rise Set
Actual Time 7:24 AM CDT 6:58 PM CDT
Civil Twilight 6:53 AM CDT 7:29 PM CDT
Nautical Twilight 6:16 AM CDT 8:06 PM CDT
Astronomical Twilight 5:39 AM CDT 8:43 PM CDT
Moon 7:53 PM CDT (10/2) 10:09 AM CDT (10/2)
Length of Visible Light 12h 36m
Length of Day
11h 33m
Waning Gibbous, 94% of the Moon is Illuminated
Oct 2
Waning Gibbous
Oct 8
Last Quarter
Oct 15
New
Oct 21
First Quarter
Oct 29
Full

Hourly Weather History & Observations

Time (CDT) Temp. Windchill Dew Point Humidity Pressure Visibility Wind Dir Wind Speed Gust Speed Precip Events Conditions
12:14 AM 39.2 °F 35.0 °F 26.6 °F 61% 29.92 in 7.0 mi South 5.8 mph - N/A   Clear
12:35 AM 41.0 °F 37.1 °F 28.4 °F 61% 29.91 in 10.0 mi South 5.8 mph - N/A   Clear
12:54 AM 41.0 °F 35.8 °F 30.2 °F 65% 29.91 in 10.0 mi South 8.1 mph - N/A   Clear
1:14 AM 42.8 °F 38.0 °F 30.2 °F 61% 29.90 in 10.0 mi South 8.1 mph - N/A   Clear
1:35 AM 42.8 °F 38.6 °F 30.2 °F 61% 29.90 in 10.0 mi South 6.9 mph - N/A   Clear
2:14 AM 42.8 °F 38.6 °F 30.2 °F 61% 29.90 in 10.0 mi South 6.9 mph - N/A   Clear
2:34 AM 42.8 °F 38.0 °F 30.2 °F 61% 29.89 in 10.0 mi South 8.1 mph - N/A   Clear
2:55 AM 42.8 °F 38.0 °F 30.2 °F 61% 29.88 in 10.0 mi South 8.1 mph - N/A   Clear
3:14 AM 42.8 °F 38.0 °F 30.2 °F 61% 29.87 in 10.0 mi South 8.1 mph - N/A   Clear
3:34 AM 44.6 °F 39.7 °F 28.4 °F 53% 29.87 in 10.0 mi South 9.2 mph - N/A   Clear
4:14 AM 44.6 °F 39.7 °F 28.4 °F 53% 29.86 in 10.0 mi South 9.2 mph - N/A   Clear
4:34 AM 44.6 °F 38.8 °F 28.4 °F 53% 29.86 in 10.0 mi South 11.5 mph - N/A   Clear
4:54 AM 46.4 °F 41.5 °F 28.4 °F 50% 29.85 in 10.0 mi South 10.4 mph - N/A   Clear
5:35 AM 46.4 °F 41.1 °F 28.4 °F 50% 29.84 in 10.0 mi South 11.5 mph - N/A   Clear
5:54 AM 46.4 °F 41.1 °F 28.4 °F 50% 29.84 in 10.0 mi South 11.5 mph - N/A   Clear
6:14 AM 46.4 °F 41.1 °F 28.4 °F 50% 29.84 in 10.0 mi South 11.5 mph - N/A   Clear
6:35 AM 46.4 °F 41.1 °F 28.4 °F 50% 29.83 in 10.0 mi South 11.5 mph - N/A   Clear
6:54 AM 46.4 °F 41.1 °F 28.4 °F 50% 29.82 in 10.0 mi South 11.5 mph - N/A   Clear
7:14 AM 46.4 °F 40.4 °F 28.4 °F 50% 29.81 in 10.0 mi South 13.8 mph - N/A   Clear
7:35 AM 46.4 °F 40.7 °F 28.4 °F 50% 29.81 in 10.0 mi South 12.7 mph - N/A   Clear
7:54 AM 46.4 °F 40.7 °F 30.2 °F 53% 29.81 in 10.0 mi South 12.7 mph - N/A   Clear
8:14 AM 46.4 °F 41.1 °F 30.2 °F 53% 29.80 in 10.0 mi South 11.5 mph - N/A   Clear
8:34 AM 48.2 °F - 30.2 °F 50% 29.79 in 10.0 mi South 12.7 mph - N/A   Clear
8:55 AM 51.8 °F - 30.2 °F 44% 29.77 in 10.0 mi South 16.1 mph - N/A   Clear
9:14 AM 53.6 °F - 28.4 °F 38% 29.76 in 10.0 mi South 19.6 mph 25.3 mph N/A   Clear
9:34 AM 57.2 °F - 28.4 °F 33% 29.76 in 10.0 mi South 17.3 mph 26.5 mph N/A   Clear
9:55 AM 59.0 °F - 28.4 °F 31% 29.75 in 10.0 mi South 20.7 mph 28.8 mph N/A   Clear
10:14 AM 60.8 °F - 28.4 °F 29% 29.73 in 10.0 mi South 24.2 mph 32.2 mph N/A   Clear
10:34 AM 62.6 °F - 28.4 °F 27% 29.72 in 10.0 mi South 25.3 mph 35.7 mph N/A   Clear
10:55 AM 64.4 °F - 26.6 °F 24% 29.70 in 10.0 mi SSW 29.9 mph 36.8 mph N/A   Clear
11:14 AM 64.4 °F - 26.6 °F 24% 29.69 in 10.0 mi South 27.6 mph 41.4 mph N/A   Clear
11:34 AM 66.2 °F - 24.8 °F 21% 29.68 in 10.0 mi South 35.7 mph 43.7 mph N/A   Clear
11:55 AM 68.0 °F - 24.8 °F 20% 29.67 in 10.0 mi South 35.7 mph 47.2 mph N/A   Clear
12:14 PM 68.0 °F - 24.8 °F 20% 29.67 in 10.0 mi SSW 33.4 mph 44.9 mph N/A   Clear
12:34 PM 69.8 °F - 24.8 °F 18% 29.66 in 10.0 mi South 31.1 mph 43.7 mph N/A   Clear
12:55 PM 69.8 °F - 24.8 °F 18% 29.64 in 10.0 mi South 32.2 mph 43.7 mph N/A   Clear
1:14 PM 69.8 °F - 21.2 °F 16% 29.62 in 10.0 mi South 35.7 mph 44.9 mph N/A   Clear
1:34 PM 71.6 °F - 21.2 °F 15% 29.62 in 10.0 mi SSW 31.1 mph 43.7 mph N/A   Clear
1:55 PM 71.6 °F - 21.2 °F 15% 29.62 in 10.0 mi South 35.7 mph 42.6 mph N/A   Clear
2:14 PM 71.6 °F - 19.4 °F 14% 29.62 in 10.0 mi South 33.4 mph 42.6 mph N/A   Clear
2:34 PM 73.4 °F - 19.4 °F 13% 29.62 in 10.0 mi SSW 29.9 mph 40.3 mph N/A   Clear
2:55 PM 71.6 °F - 21.2 °F 15% 29.62 in 10.0 mi SSW 29.9 mph 42.6 mph N/A   Clear
3:14 PM 71.6 °F - 21.2 °F 15% 29.62 in 10.0 mi SSW 28.8 mph 42.6 mph N/A   Clear
3:34 PM 73.4 °F - 23.0 °F 15% 29.61 in 10.0 mi SSW 29.9 mph 36.8 mph N/A   Clear
3:55 PM 75.2 °F - 24.8 °F 15% 29.61 in 10.0 mi SW 29.9 mph 34.5 mph N/A   Clear
4:14 PM 75.2 °F - 24.8 °F 15% 29.60 in 10.0 mi SSW 23.0 mph 38.0 mph N/A   Clear
4:34 PM 73.4 °F - 24.8 °F 16% 29.60 in 10.0 mi SW 26.5 mph 31.1 mph N/A   Clear
4:55 PM 75.2 °F - 26.6 °F 17% 29.60 in 10.0 mi SW 23.0 mph 31.1 mph N/A   Clear
5:14 PM 73.4 °F - 26.6 °F 18% 29.60 in 10.0 mi SSW 19.6 mph 28.8 mph N/A   Clear
5:34 PM 75.2 °F - 26.6 °F 17% 29.61 in 10.0 mi SSW 19.6 mph 25.3 mph N/A   Clear
5:55 PM 73.4 °F - 30.2 °F 20% 29.62 in 10.0 mi West 10.4 mph 21.9 mph N/A   Clear
6:14 PM 73.4 °F - 33.8 °F 23% 29.63 in 10.0 mi West 10.4 mph 23.0 mph N/A   Clear
6:34 PM 71.6 °F - 35.6 °F 27% 29.64 in 10.0 mi West 12.7 mph 18.4 mph N/A   Clear
7:14 PM 69.8 °F - 35.6 °F 28% 29.66 in 10.0 mi West 6.9 mph - N/A   Clear
7:35 PM 69.8 °F - 37.4 °F 31% 29.66 in 10.0 mi West 6.9 mph - N/A   Clear
8:14 PM 66.2 °F - 37.4 °F 35% 29.68 in 10.0 mi WSW 4.6 mph - N/A   Clear
8:35 PM 62.6 °F - 37.4 °F 39% 29.68 in 10.0 mi SW 4.6 mph - N/A   Clear
9:14 PM 60.8 °F - 37.4 °F 42% 29.70 in 10.0 mi SW 6.9 mph - N/A   Clear
9:35 PM 60.8 °F - 37.4 °F 42% 29.71 in 10.0 mi SW 6.9 mph - N/A   Clear
9:54 PM 60.8 °F - 37.4 °F 42% 29.72 in 10.0 mi WSW 4.6 mph - N/A   Clear
10:14 PM 62.6 °F - 37.4 °F 39% 29.72 in 10.0 mi West 5.8 mph - N/A   Clear
10:34 PM 62.6 °F - 37.4 °F 39% 29.72 in 10.0 mi West 6.9 mph - N/A   Clear
10:54 PM 60.8 °F - 37.4 °F 42% 29.73 in 10.0 mi West 5.8 mph - N/A   Clear
11:15 PM 60.8 °F - 37.4 °F 42% 29.74 in 10.0 mi West 6.9 mph - N/A   Clear
11:34 PM 60.8 °F - 37.4 °F 42% 29.74 in 10.0 mi WSW 4.6 mph - N/A   Clear
11:54 PM 57.2 °F - 37.4 °F 48% 29.75 in 10.0 mi WSW 4.6 mph - N/A   Clear